Aérodrome :
LOGIN :

S'inscrire | Disclaimer

   EN    FR    IT 

 










Légende :    VFR   VFR Marginal   IFR   IFR Intensif   IFR Très Intensif
Visi : 
Plafond : 
>= 8 km
>= 3000ft
5 à 8 km
1000 à 3000 ft
1500m à 5 km
500 à 1000 ft
800 à 1500m
200 à 500 ft
< 800m
< 200 ft
Symboles :   Orages  Brouillard  Fortes neiges  Fortes précipitations  Vent > 20 kt
SIGMETs :   Divers  Orages  Givrage  Turbulence  Onde Orograph.  Cendres Volcan.







- Altitude de l'aérodrome : 614 ft
- Code IATA : CRL


EBCI - Charleroi

DERNIER METAR :
  • 210950Z 23006KT 2500 BR BKN004 02/01 Q1017 BECMG 5000 BR BKN010

METARs EXPIRÉS :
  • 210920Z 23008KT 2500 BR BKN003 02/01 Q1016 BECMG 5000 BR BKN015
  • 210850Z 23008KT 0800 R25/1600N FG BKN002 01/01 Q1016 TEMPO 0300 FG BKN001
  • 210820Z 23007KT 0800 R25/1200N FG BKN002 01/01 Q1016 TEMPO 0300 FG BKN001
  • 210750Z 24006KT 0400 R25/0450N FG BKN001 01/00 Q1015 TEMPO 0300 FG BKN001
  • 210720Z 24007KT 0600 R25/1900N FG BKN002 01/00 Q1015 TEMPO 0400 FG BKN001

TAF AMD TAF EBCI
Valide du 21 à 06h jusqu'au 22 à 12h UTC


210520Z 2106/2212 26005KT 0450 FG BKN001
BECMG 2110/2112 6000 NSW SCT005
BECMG 2114/2116 18011KT SCT006 BKN012
PROB30
TEMPO 2116/2119 2500 -RASN -SNRA SCT004 BKN006
TEMPO 2119/2202 2500 RADZ RA BKN004
BECMG 2200/2202 27009KT
PROB40
TEMPO 2202/2206 1500 BR BKN002
BECMG 2210/2212 SCT012 BKN025
Pas de NOTAMs connus pour ce terrain.



MET'MAP, la Météo Aéronautique d'un coup d'oeil ! - Copyright ORBIFLY Décembre 2007 - Disclaimer

ORBIFLY MET'MAP TEAM :

Programmation & Développement : Alexandra Zaïnal
Conception & Développement : Baudouin d'Aumeries
Co-Programmation & Développement : Marc-Olivier Méhu
Soutien technique & logistique : Manuel Goepfert

Contact : metmap@orbifly.com




SOURCES & CREDITS :

   NOAA